sim
Sign-in with your pilot id or email,
or register
Callsign
Passwort

Schedule Details

Flight Number: OEC0718
Departure: Dresden Airport (EDDC) at Time
Arrival: Munich Airport (EDDM) at Time
Route: EDDC/22 MARE5W MAREM T106 BAGMI BAGM4A EDDM/08R

Weather Information
Getting current METAR information for EDDC 221650Z 14007KT CAVOK 22/11 Q1009 NOSIG
Getting current METAR information for EDDM 221650Z 07002KT 9999 FEW040CB 20/15 Q1010 NOSIG

Schedule Frequency

Route Map